Thunderstorms From: 15-12-2017 06:00 Until: 16-12-2017 06:00 warning for: Thunderstorms Level: Yellow info button

Although rather usual in this region, locally or potentially dangerous phenomena are expected. (such as local winds, summer thunderstorms, rising streams or high waves) Be aware and pay attention to the latest weather updates, especially if you carry out activities exposed to weather or close to a stream or shoreline. 


Meteo18 Weather Cam more information Meteo18 Weather Cam


warning for Thunderstorms more information blitzortung!


Rain radar more information rain snow radar


Visit our other weather sites:

Template documentation
and downloads

And another site



Weather Underground History page Text

Daily Summary for October 31, 2017 Units:  English    Metric   Both
« Previous Day
Next Day »
Daily Weekly Monthly Yearly Custom
  High: Low: Average:
Temperature: 53.4 °F 36 °F 45 °F
Dew Point: 39.7 °F 34.3 °F 37.4 °F
Humidity: 94 % 53 % 76 %
Wind Speed: 10 mph 0 mph 2.9 mph
Wind Gust: 15 mph - -
Wind:- - East
Pressure: 30.4 in 30.3 in -
Precipitation: 0 in    
Historical Graphs
 
 
Tabular Data for October 31, 2017
Time Temperature Dew Point Pressure Wind Wind Speed Wind Gust Humidity Rainfall Rate (Hourly)
00:02 40.3 °F 37 °F 30.4 in ESE 2 mph 6 mph 88 % 0 in
00:12 40.3 °F 37.2 °F 30.4 in NNE 2 mph 6 mph 89 % 0 in
00:17 40.3 °F 37.2 °F 30.4 in NNW 1 mph 7 mph 89 % 0 in
00:22 40.3 °F 37.2 °F 30.4 in Calm   7 mph 89 % 0 in
00:27 40.1 °F 37 °F 30.4 in NE 2 mph 4 mph 89 % 0 in
00:37 39.9 °F 37.2 °F 30.4 in NE 2 mph 6 mph 90 % 0 in
00:42 39.9 °F 36.9 °F 30.4 in NNW 1 mph 6 mph 89 % 0 in
00:52 39.4 °F 36.7 °F 30.4 in NNE 1 mph 4 mph 90 % 0 in
01:02 39 °F 36.3 °F 30.4 in NNE 2 mph 4 mph 90 % 0 in
01:12 39 °F 36.7 °F 30.4 in NNW 1 mph 4 mph 91 % 0 in
01:17 39 °F 36.7 °F 30.4 in Calm   4 mph 91 % 0 in
01:22 39 °F 36.7 °F 30.4 in Calm   4 mph 91 % 0 in
01:27 39 °F 36.7 °F 30.4 in Calm   3 mph 91 % 0 in
01:32 39 °F 36.7 °F 30.4 in North 1 mph 4 mph 91 % 0 in
01:42 38.8 °F 36.5 °F 30.4 in Calm   4 mph 91 % 0 in
01:47 38.5 °F 36.1 °F 30.4 in NNW 1 mph 3 mph 91 % 0 in
01:52 38.5 °F 36.3 °F 30.4 in NNW 1 mph 3 mph 92 % 0 in
01:57 38.5 °F 36.3 °F 30.4 in North 2 mph 3 mph 92 % 0 in
02:02 38.5 °F 36.3 °F 30.4 in NNE 1 mph 4 mph 92 % 0 in
02:12 38.5 °F 36.3 °F 30.4 in NNE 2 mph 4 mph 92 % 0 in
02:17 38.5 °F 36.3 °F 30.4 in NNE 1 mph 5 mph 92 % 0 in
02:22 38.3 °F 36.1 °F 30.4 in NNE 1 mph 5 mph 92 % 0 in
02:37 37.9 °F 35.8 °F 30.4 in NNE 1 mph 3 mph 92 % 0 in
02:42 37.9 °F 35.8 °F 30.4 in Calm   2 mph 92 % 0 in
02:52 37.9 °F 36.1 °F 30.4 in Calm   3 mph 93 % 0 in
02:57 37.9 °F 35.8 °F 30.4 in Calm   2 mph 92 % 0 in
03:02 37.8 °F 35.6 °F 30.4 in NNW 1 mph 3 mph 92 % 0 in
03:12 37.9 °F 35.8 °F 30.4 in NNE 1 mph 3 mph 92 % 0 in
03:17 37.8 °F 35.6 °F 30.4 in NNE 2 mph 4 mph 92 % 0 in
03:22 37.8 °F 35.6 °F 30.4 in NE 1 mph 4 mph 92 % 0 in
03:27 37.8 °F 35.6 °F 30.4 in North 1 mph 4 mph 92 % 0 in
03:32 37.8 °F 35.6 °F 30.4 in North 1 mph 4 mph 92 % 0 in
03:37 37.9 °F 35.8 °F 30.4 in North 3 mph 4 mph 92 % 0 in
03:42 38.1 °F 36 °F 30.4 in NE 2 mph 3 mph 92 % 0 in
03:47 37.9 °F 35.8 °F 30.4 in Calm   4 mph 92 % 0 in
03:52 37.8 °F 35.6 °F 30.4 in NNW 1 mph 4 mph 92 % 0 in
03:57 37.6 °F 35.4 °F 30.4 in Calm   4 mph 92 % 0 in
04:02 37.2 °F 34.9 °F 30.4 in Calm   3 mph 91 % 0 in
04:07 37.2 °F 34.9 °F 30.4 in Calm   3 mph 91 % 0 in
08:12 36 °F 34.3 °F 30.4 in North 1 mph -998.7 mph 94 % 0 in
08:17 36.3 °F 34.7 °F 30.4 in NNW 1 mph 3 mph 94 % 0 in
08:22 36.7 °F 35.1 °F 30.4 in NNE 2 mph 3 mph 94 % 0 in
08:37 37.6 °F 35.8 °F 30.4 in NNE 1 mph 3 mph 93 % 0 in
08:42 38.1 °F 36.3 °F 30.4 in Calm   3 mph 93 % 0 in
08:47 38.5 °F 36.7 °F 30.4 in Calm   5 mph 93 % 0 in
08:52 38.7 °F 36.5 °F 30.4 in NNE 6 mph 6 mph 92 % 0 in
09:02 39.4 °F 36.7 °F 30.4 in NE 4 mph 6 mph 90 % 0 in
09:12 39.9 °F 36.7 °F 30.4 in NE 6 mph 9 mph 88 % 0 in
09:17 40.1 °F 36.9 °F 30.4 in ENE 8 mph 12 mph 88 % 0 in
09:22 40.5 °F 37.2 °F 30.4 in NE 8 mph 12 mph 88 % 0 in
09:27 40.6 °F 37 °F 30.4 in North 7 mph 11 mph 87 % 0 in
09:32 40.8 °F 37.2 °F 30.4 in NE 3 mph 11 mph 87 % 0 in
09:37 41.2 °F 37.4 °F 30.4 in NE 6 mph 11 mph 86 % 0 in
09:42 41.4 °F 37.6 °F 30.4 in NNE 8 mph 11 mph 86 % 0 in
09:47 41.4 °F 37.2 °F 30.4 in NE 4 mph 10 mph 85 % 0 in
09:52 41.5 °F 37.4 °F 30.4 in ENE 7 mph 10 mph 85 % 0 in
09:57 41.7 °F 37.6 °F 30.4 in NE 7 mph 12 mph 85 % 0 in
10:02 42.1 °F 37.6 °F 30.4 in NNE 4 mph 12 mph 84 % 0 in
10:12 42.4 °F 37.6 °F 30.4 in NE 5 mph 12 mph 83 % 0 in
10:17 43 °F 38.1 °F 30.4 in NNE 8 mph 13 mph 83 % 0 in
10:27 43.7 °F 38.5 °F 30.4 in ENE 5 mph 10 mph 82 % 0 in
10:32 43.9 °F 38.7 °F 30.4 in NE 6 mph 10 mph 82 % 0 in
10:42 44.2 °F 38.8 °F 30.4 in NE 5 mph 11 mph 81 % 0 in
10:52 45 °F 39.2 °F 30.4 in NNE 5 mph 11 mph 80 % 0 in
10:57 45.1 °F 39.7 °F 30.4 in NE 3 mph 10 mph 81 % 0 in
11:02 45.1 °F 38.7 °F 30.4 in NNE 8 mph 10 mph 78 % 0 in
11:12 45.7 °F 39.6 °F 30.4 in NE 4 mph 11 mph 79 % 0 in
11:17 46.2 °F 39.4 °F 30.4 in ENE 3 mph 11 mph 77 % 0 in
11:22 46.8 °F 39.2 °F 30.4 in NE 7 mph 11 mph 75 % 0 in
11:32 47.5 °F 39.2 °F 30.4 in NE 3 mph 10 mph 73 % 0 in
11:42 48 °F 39 °F 30.4 in ENE 4 mph 10 mph 71 % 0 in
11:52 48.7 °F 39 °F 30.4 in ENE 3 mph 11 mph 69 % 0 in
11:57 49.3 °F 38.8 °F 30.4 in East 2 mph 10 mph 67 % 0 in
12:02 49.5 °F 38.7 °F 30.4 in NNE 5 mph 10 mph 66 % 0 in
12:12 49.6 °F 38.3 °F 30.4 in North 4 mph 12 mph 65 % 0 in
12:22 50 °F 37.9 °F 30.4 in NE 7 mph 12 mph 63 % 0 in
12:27 50.5 °F 38.5 °F 30.4 in ENE 4 mph 11 mph 63 % 0 in
12:32 50.7 °F 38.1 °F 30.4 in NE 6 mph 11 mph 62 % 0 in
12:37 50.5 °F 37.6 °F 30.4 in ENE 4 mph 11 mph 61 % 0 in
12:42 50.5 °F 38.5 °F 30.4 in ENE 5 mph 11 mph 63 % 0 in
12:52 50.9 °F 37.6 °F 30.4 in East 7 mph 11 mph 60 % 0 in
12:57 51.1 °F 37.2 °F 30.4 in ESE 4 mph 12 mph 59 % 0 in
13:02 51.3 °F 37.8 °F 30.4 in North 10 mph 12 mph 60 % 0 in
13:12 51.3 °F 37.8 °F 30.3 in ENE 4 mph 13 mph 60 % 0 in
13:17 51.4 °F 37.9 °F 30.3 in NE 5 mph 13 mph 60 % 0 in
13:22 51.8 °F 38.3 °F 30.3 in NE 4 mph 13 mph 60 % 0 in
13:27 51.8 °F 37.6 °F 30.3 in East 3 mph 13 mph 58 % 0 in
13:37 51.8 °F 37.6 °F 30.3 in NE 9 mph 13 mph 58 % 0 in
13:42 52 °F 36.9 °F 30.3 in NNE 6 mph 13 mph 56 % 0 in
13:47 52.2 °F 36.9 °F 30.3 in NNE 6 mph 13 mph 56 % 0 in
13:52 52.3 °F 36.7 °F 30.3 in NE 8 mph 12 mph 55 % 0 in
13:57 52.2 °F 36 °F 30.3 in NNE 5 mph 12 mph 54 % 0 in
14:02 52.3 °F 36.1 °F 30.3 in ENE 5 mph 15 mph 54 % 0 in
14:12 52.5 °F 36.3 °F 30.3 in NE 4 mph 14 mph 54 % 0 in
14:17 52.9 °F 38.1 °F 30.3 in NE 2 mph 14 mph 57 % 0 in
14:22 52.9 °F 36.7 °F 30.3 in NNE 5 mph 11 mph 54 % 0 in
14:27 52.9 °F 36.7 °F 30.3 in NNE 7 mph 11 mph 54 % 0 in
14:32 52.9 °F 37.2 °F 30.3 in East 5 mph 14 mph 55 % 0 in
14:37 52.9 °F 36.1 °F 30.3 in NNE 9 mph 14 mph 53 % 0 in
14:42 52.9 °F 36.1 °F 30.3 in NE 9 mph 13 mph 53 % 0 in
14:52 52.9 °F 36.1 °F 30.3 in NNE 5 mph 14 mph 53 % 0 in
14:57 52.9 °F 36.7 °F 30.3 in ENE 3 mph 14 mph 54 % 0 in
15:02 52.9 °F 36.7 °F 30.3 in ENE 7 mph 12 mph 54 % 0 in
15:12 52.9 °F 36.1 °F 30.3 in NE 7 mph 11 mph 53 % 0 in
15:17 52.9 °F 36.1 °F 30.3 in ENE 9 mph 11 mph 53 % 0 in
15:22 53.1 °F 36.3 °F 30.3 in NE 3 mph 15 mph 53 % 0 in
15:32 53.1 °F 36.3 °F 30.3 in NE 7 mph 15 mph 53 % 0 in
15:37 53.2 °F 37 °F 30.3 in ENE 3 mph 15 mph 54 % 0 in
15:42 53.2 °F 36.5 °F 30.3 in East 5 mph 12 mph 53 % 0 in
15:47 53.4 °F 37.2 °F 30.3 in ENE 7 mph 12 mph 54 % 0 in
15:52 53.2 °F 37 °F 30.3 in NNE 4 mph 10 mph 54 % 0 in
15:57 53.2 °F 37.4 °F 30.3 in NNE 4 mph 10 mph 55 % 0 in
16:02 53.2 °F 37.4 °F 30.3 in NE 3 mph 10 mph 55 % 0 in
16:07 53.2 °F 37.4 °F 30.3 in East 3 mph 10 mph 55 % 0 in
16:12 53.1 °F 36.9 °F 30.3 in ENE 3 mph 11 mph 54 % 0 in
16:17 53.1 °F 37.4 °F 30.3 in ENE 8 mph 11 mph 55 % 0 in
16:22 52.9 °F 37.2 °F 30.3 in ENE 4 mph 8 mph 55 % 0 in
16:27 52.9 °F 37.6 °F 30.3 in NE 2 mph 8 mph 56 % 0 in
16:32 52.9 °F 37.6 °F 30.3 in ENE 3 mph 9 mph 56 % 0 in
16:37 52.5 °F 37.2 °F 30.3 in NE 4 mph 9 mph 56 % 0 in
16:42 52.2 °F 37.4 °F 30.3 in NE 3 mph 9 mph 57 % 0 in
16:52 51.6 °F 37.8 °F 30.3 in ENE 3 mph 8 mph 59 % 0 in
16:57 51.3 °F 37.4 °F 30.3 in NNE 4 mph 7 mph 59 % 0 in
17:02 51.1 °F 37.8 °F 30.3 in ENE 2 mph 6 mph 60 % 0 in
17:12 50.2 °F 38.1 °F 30.3 in NNE 1 mph 6 mph 63 % 0 in
17:22 49.5 °F 38.1 °F 30.3 in NNE 3 mph 5 mph 65 % 0 in
17:27 49.3 °F 38.5 °F 30.3 in NE 4 mph 5 mph 66 % 0 in
17:32 49.1 °F 37.8 °F 30.3 in NNE 4 mph 5 mph 65 % 0 in
17:37 48.7 °F 37.9 °F 30.3 in NNE 3 mph 5 mph 66 % 0 in
17:42 48.4 °F 38.3 °F 30.3 in Calm   5 mph 68 % 0 in
17:47 47.8 °F 38.1 °F 30.3 in NNE 2 mph 5 mph 69 % 0 in
17:52 47.5 °F 38.1 °F 30.3 in North 3 mph 5 mph 70 % 0 in
18:02 46.9 °F 38.1 °F 30.3 in NNW 1 mph 4 mph 71 % 0 in
18:12 46.2 °F 38.1 °F 30.3 in NNE 1 mph 4 mph 73 % 0 in
18:17 46 °F 38.3 °F 30.3 in NNE 2 mph 3 mph 74 % 0 in
18:22 45.7 °F 38.3 °F 30.3 in Calm   3 mph 75 % 0 in
18:32 45.7 °F 38.8 °F 30.3 in NE 2 mph 4 mph 77 % 0 in
18:37 45.9 °F 39.4 °F 30.3 in NNE 4 mph 6 mph 78 % 0 in
18:42 46.4 °F 39.2 °F 30.3 in ENE 5 mph 6 mph 76 % 0 in
18:47 46.8 °F 39.2 °F 30.3 in North 3 mph 6 mph 75 % 0 in
18:52 46.8 °F 38.8 °F 30.3 in NE 3 mph 6 mph 74 % 0 in
19:02 46.2 °F 39 °F 30.3 in NE 2 mph 5 mph 76 % 0 in
19:07 46 °F 38.8 °F 30.3 in NE 3 mph 5 mph 76 % 0 in
19:17 46 °F 38.8 °F 30.3 in Calm   7 mph 76 % 0 in
19:22 45.9 °F 38.7 °F 30.3 in NNE 4 mph 7 mph 76 % 0 in
19:27 46 °F 39.2 °F 30.3 in NE 4 mph 7 mph 77 % 0 in
19:32 46 °F 39.2 °F 30.3 in Calm   7 mph 77 % 0 in
19:42 45.7 °F 39.2 °F 30.3 in NE 4 mph 6 mph 78 % 0 in
19:47 45.7 °F 39.2 °F 30.3 in NE 3 mph 5 mph 78 % 0 in
19:52 45.5 °F 39 °F 30.3 in NNE 3 mph 6 mph 78 % 0 in
19:57 45.3 °F 39.2 °F 30.3 in NNE 3 mph 6 mph 79 % 0 in
20:02 45.3 °F 39.2 °F 30.3 in NE 1 mph 6 mph 79 % 0 in
20:12 45.1 °F 39 °F 30.3 in Calm   5 mph 79 % 0 in
20:17 45 °F 38.8 °F 30.3 in Calm   4 mph 79 % 0 in
20:27 44.8 °F 39 °F 30.3 in Calm   2 mph 80 % 0 in
20:32 44.6 °F 38.8 °F 30.3 in North 2 mph 2 mph 80 % 0 in
20:42 44.4 °F 38.7 °F 30.3 in Calm   2 mph 80 % 0 in
20:47 44.2 °F 38.5 °F 30.3 in NNW 1 mph 2 mph 80 % 0 in
20:52 44.2 °F 38.5 °F 30.3 in Calm   2 mph 80 % 0 in
20:57 44.1 °F 38.3 °F 30.3 in Calm   1 mph 80 % 0 in
21:02 44.2 °F 38.5 °F 30.3 in Calm   1 mph 80 % 0 in
21:12 44.2 °F 38.5 °F 30.3 in NNE 1 mph 1 mph 80 % 0 in
21:17 44.2 °F 38.5 °F 30.3 in NNE 1 mph 2 mph 80 % 0 in
21:22 44.1 °F 38.3 °F 30.3 in Calm   2 mph 80 % 0 in
21:27 44.2 °F 38.5 °F 30.3 in NE 1 mph 2 mph 80 % 0 in
21:32 44.2 °F 38.5 °F 30.3 in Calm   2 mph 80 % 0 in
21:42 43.7 °F 38.3 °F 30.3 in Calm   2 mph 81 % 0 in
21:47 43.9 °F 38.1 °F 30.3 in Calm   1 mph 80 % 0 in
21:52 43.3 °F 37.6 °F 30.3 in Calm   1 mph 80 % 0 in
21:57 42.6 °F 37.8 °F 30.3 in Calm   1 mph 83 % 0 in
22:02 42.1 °F 37.2 °F 30.3 in WNW 1 mph 1 mph 83 % 0 in
22:12 41.7 °F 37.8 °F 30.3 in Calm   1 mph 86 % 0 in
22:22 41.9 °F 37.4 °F 30.3 in North 1 mph 1 mph 84 % 0 in
22:32 42.1 °F 37.9 °F 30.3 in Calm   1 mph 85 % 0 in
22:42 41.7 °F 37.2 °F 30.3 in Calm   1 mph 84 % 0 in
22:47 41.5 °F 37.4 °F 30.3 in North 1 mph 1 mph 85 % 0 in
22:52 41.4 °F 37.2 °F 30.3 in NNE 1 mph 1 mph 85 % 0 in
22:57 41.5 °F 37.4 °F 30.3 in Calm   2 mph 85 % 0 in
23:02 41.5 °F 37.4 °F 30.3 in Calm   2 mph 85 % 0 in
23:12 41.5 °F 37.4 °F 30.3 in NNE 1 mph 2 mph 85 % 0 in
23:17 41.4 °F 37.2 °F 30.3 in NNE 2 mph 2 mph 85 % 0 in
23:22 40.8 °F 36.7 °F 30.3 in NNE 2 mph 2 mph 85 % 0 in
23:27 40.5 °F 36.7 °F 30.3 in NNE 1 mph 3 mph 86 % 0 in
23:32 40.6 °F 37 °F 30.3 in ENE 1 mph 3 mph 87 % 0 in
23:37 40.8 °F 37.2 °F 30.3 in ENE 1 mph 3 mph 87 % 0 in
23:42 40.6 °F 36.9 °F 30.3 in Calm   2 mph 86 % 0 in
23:47 40.5 °F 36.7 °F 30.3 in Calm   2 mph 86 % 0 in
23:52 39.9 °F 36.3 °F 30.3 in Calm   1 mph 87 % 0 in
23:57 39.7 °F 36.5 °F 30.3 in Calm   1 mph 88 % 0 in
Meteo18
Compliments of Weather Underground - 4 mb

Script developed by  Jim McMurry - jmcmurry@mwt.net Adapted for the template by  Wim van der Kuil - Leuven-Template.eu

You find our weather info also at:

European Weather Network

Weather Underground

Equipment we use:

Weather-station
Davis Vue

Weather-program
Meteohub

Weather-server
Raspberry PI 2 B+

Provider
1 and 1

Davis Vue

Meteohub

Raspberry PI 2 B+

1 and 1